Time;durP1;ratioP1;P1;durP2;ratioP2;P2;SDS_P1;SDS_P2;PMS_P1;PMS_P2;Temp;Humidity;BMP_temperature;BMP_pressure;BME280_temperature;BME280_humidity;BME280_pressure;Samples;Min_cycle;Max_cycle;Signal;HPM_P1;HPM_P2
2021/04/07 00:00:04;;;;;;;;;;;1.40;99.90;;;;;;5117564;27;19920;-66
2021/04/07 00:02:36;;;;;;;;;;;1.40;99.90;;;;;;5099077;28;19930;-66
2021/04/07 00:05:24;;;;;;;;;;;1.40;99.90;;;;;;5134986;27;19926;-66
2021/04/07 00:08:03;;;;;;;;;;;1.40;99.90;;;;;;5102456;27;19924;-66
2021/04/07 00:10:50;;;;;;;;;;;1.40;99.90;;;;;;5133678;27;20066;-66
2021/04/07 00:19:58;;;;;;;;;;;1.40;99.90;;;;;;5125873;27;20282;-66
2021/04/07 00:22:32;;;;;;;;;;;1.30;99.90;;;;;;5096096;28;19939;-66
2021/04/07 00:25:01;;;;;;;;;;;1.40;99.90;;;;;;5134449;27;19919;-66
2021/04/07 00:27:40;;;;;;;;;;;1.30;99.90;;;;;;5095833;28;19967;-66
2021/04/07 00:30:34;;;;;;;;;;;1.30;99.90;;;;;;5135997;27;19926;-66
2021/04/07 00:33:23;;;;;;;;;;;1.30;99.90;;;;;;5132686;27;19919;-66
2021/04/07 00:42:48;;;;;;;;;;;1.20;99.90;;;;;;5116424;28;19959;-66
2021/04/07 00:45:15;;;;;;;;;;;1.20;99.90;;;;;;5099520;27;19969;-66
2021/04/07 00:48:03;;;;;;;;;;;1.10;99.90;;;;;;5121904;27;19923;-66
2021/04/07 00:50:43;;;;;;;;;;;1.10;99.90;;;;;;5132687;27;20323;-66
2021/04/07 01:00:04;;;;;;;;;;;1.10;99.90;;;;;;5135911;27;19914;-66
2021/04/07 01:05:55;;;;;;;;;;;1.20;99.90;;;;;;5122032;27;20385;-66
2021/04/07 01:08:21;;;;;;;;;;;1.20;99.90;;;;;;5118381;27;19972;-67
2021/04/07 01:17:52;;;;;;;;;;;1.40;99.90;;;;;;5115280;27;19918;-66
2021/04/07 01:27:29;;;;;;;;;;;1.40;99.90;;;;;;5120417;27;19930;-66
2021/04/07 01:30:25;;;;;;;;;;;1.50;99.90;;;;;;5094884;28;19927;-67
2021/04/07 01:33:00;;;;;;;;;;;1.50;99.90;;;;;;5135378;27;19935;-67
2021/04/07 01:35:42;;;;;;;;;;;1.50;99.90;;;;;;5081212;28;19920;-65
2021/04/07 01:38:17;;;;;;;;;;;1.50;99.90;;;;;;5105986;27;20442;-66
2021/04/07 01:40:53;;;;;;;;;;;1.50;99.90;;;;;;5135036;27;19923;-65
2021/04/07 01:49:59;;;;;;;;;;;1.40;99.90;;;;;;5117960;27;20283;-66
2021/04/07 01:52:31;;;;;;;;;;;1.40;99.90;;;;;;5099481;28;19915;-66
2021/04/07 01:54:59;;;;;;;;;;;1.50;99.90;;;;;;5095775;28;19926;-66
2021/04/07 01:57:29;;;;;;;;;;;1.50;99.90;;;;;;5113324;27;19920;-66
2021/04/07 01:59:58;;;;;;;;;;;1.50;99.90;;;;;;5111874;28;19916;-66
2021/04/07 02:02:28;;;;;;;;;;;1.50;99.90;;;;;;5130775;27;20414;-66
2021/04/07 02:05:06;;;;;;;;;;;1.50;99.90;;;;;;5095622;28;19927;-67
2021/04/07 02:08:01;;;;;;;;;;;1.20;99.90;;;;;;5118536;27;19976;-67
2021/04/07 02:10:36;;;;;;;;;;;1.60;99.90;;;;;;5102720;27;20011;-66
2021/04/07 02:13:15;;;;;;;;;;;1.60;99.90;;;;;;5130051;27;20025;-66
2021/04/07 02:19:07;;;;;;;;;;;1.60;99.90;;;;;;5113531;28;20011;-66
2021/04/07 02:24:57;;;;;;;;;;;1.50;99.90;;;;;;5120943;27;19919;-66
2021/04/07 02:27:29;;;;;;;;;;;1.50;99.90;;;;;;5114227;28;20375;-66
2021/04/07 02:39:59;;;;;;;;;;;1.50;99.90;;;;;;5127915;28;19926;-66
2021/04/07 02:42:29;;;;;;;;;;;1.50;99.90;;;;;;5116540;28;19919;-66
2021/04/07 02:45:04;;;;;;;;;;;1.50;99.90;;;;;;5075728;28;19923;-66
2021/04/07 02:48:00;;;;;;;;;;;1.50;99.90;;;;;;5094907;28;20025;-66
2021/04/07 02:50:30;;;;;;;;;;;1.50;99.90;;;;;;5083242;28;19919;-66
2021/04/07 02:53:10;;;;;;;;;;;1.50;99.90;;;;;;5128906;28;19929;-65
2021/04/07 02:56:05;;;;;;;;;;;1.50;99.90;;;;;;5128761;28;20394;-64
2021/04/07 03:05:49;;;;;;;;;;;1.40;99.90;;;;;;5135132;27;20273;-66
2021/04/07 03:08:34;;;;;;;;;;;1.50;99.90;;;;;;5098758;27;19920;-66
2021/04/07 03:11:09;;;;;;;;;;;1.50;99.90;;;;;;5132438;27;19920;-66
2021/04/07 03:13:59;;;;;;;;;;;1.50;99.90;;;;;;5134447;27;19922;-65
2021/04/07 03:23:24;;;;;;;;;;;1.50;99.90;;;;;;5117360;28;19964;-65
2021/04/07 03:26:02;;;;;;;;;;;1.50;99.90;;;;;;5113240;28;19927;-65
2021/04/07 03:28:46;;;;;;;;;;;1.50;99.90;;;;;;5101451;28;19920;-65
2021/04/07 03:38:13;;;;;;;;;;;1.60;99.90;;;;;;5093917;28;19915;-66
2021/04/07 03:40:49;;;;;;;;;;;1.60;99.90;;;;;;5104417;28;19949;-66
2021/04/07 03:43:17;;;;;;;;;;;1.60;99.90;;;;;;5077170;28;19920;-65
2021/04/07 03:45:48;;;;;;;;;;;1.00;99.90;;;;;;5111759;28;19926;-66
2021/04/07 03:48:15;;;;;;;;;;;1.60;99.90;;;;;;5102843;28;19935;-65
2021/04/07 03:50:53;;;;;;;;;;;1.70;99.90;;;;;;5096787;28;19924;-66
2021/04/07 03:53:49;;;;;;;;;;;1.60;99.90;;;;;;5096538;28;19970;-66
2021/04/07 03:56:23;;;;;;;;;;;1.70;99.90;;;;;;5085812;28;19969;-66
2021/04/07 03:59:20;;;;;;;;;;;1.60;99.90;;;;;;5103119;28;19926;-66
2021/04/07 04:05:45;;;;;;;;;;;1.70;99.90;;;;;;5100229;28;20321;-66
2021/04/07 04:08:18;;;;;;;;;;;1.70;99.90;;;;;;5076138;28;20384;-66
2021/04/07 04:10:44;;;;;;;;;;;1.70;99.90;;;;;;5108787;28;19926;-66
2021/04/07 04:13:22;;;;;;;;;;;1.80;99.90;;;;;;5115573;28;19928;-66
2021/04/07 04:16:01;;;;;;;;;;;1.70;99.90;;;;;;5093653;28;19920;-66
2021/04/07 04:18:31;;;;;;;;;;;1.70;99.90;;;;;;5101383;28;19955;-65
2021/04/07 04:20:56;;;;;;;;;;;1.70;99.90;;;;;;5061438;28;20367;-65
2021/04/07 04:23:24;;;;;;;;;;;1.80;99.90;;;;;;5098584;28;19966;-66
2021/04/07 04:25:56;;;;;;;;;;;1.70;99.90;;;;;;5098031;28;20351;-65
2021/04/07 04:28:53;;;;;;;;;;;1.70;99.90;;;;;;5100192;27;19920;-66
2021/04/07 04:38:16;;;;;;;;;;;1.70;99.90;;;;;;5136748;27;20356;-66
2021/04/07 04:40:46;;;;;;;;;;;1.70;99.90;;;;;;5119199;27;19920;-66
2021/04/07 04:43:16;;;;;;;;;;;1.70;99.90;;;;;;5128640;27;20457;-66
2021/04/07 04:45:44;;;;;;;;;;;1.80;99.90;;;;;;5095516;28;20321;-67
2021/04/07 04:48:19;;;;;;;;;;;1.80;99.90;;;;;;5124158;27;20272;-66
2021/04/07 04:50:49;;;;;;;;;;;1.80;99.90;;;;;;5128332;27;19919;-67
2021/04/07 04:53:43;;;;;;;;;;;1.90;99.90;;;;;;5115817;28;20359;-66
2021/04/07 04:59:58;;;;;;;;;;;1.80;99.90;;;;;;5113784;27;19919;-66
2021/04/07 05:02:28;;;;;;;;;;;1.80;99.90;;;;;;5093558;28;19920;-67
2021/04/07 05:05:04;;;;;;;;;;;1.80;99.90;;;;;;5097786;28;19957;-66
2021/04/07 05:07:29;;;;;;;;;;;1.80;99.90;;;;;;5111612;27;19955;-67
2021/04/07 05:09:58;;;;;;;;;;;1.80;99.90;;;;;;5121257;27;20385;-66
2021/04/07 05:12:28;;;;;;;;;;;1.80;99.90;;;;;;5097232;28;20468;-66
2021/04/07 05:15:02;;;;;;;;;;;1.80;99.90;;;;;;5132265;27;19919;-66
2021/04/07 05:17:37;;;;;;;;;;;1.90;99.90;;;;;;5134826;27;20408;-66
2021/04/07 05:20:14;;;;;;;;;;;1.90;99.90;;;;;;5106490;27;19919;-66
2021/04/07 05:22:51;;;;;;;;;;;1.90;99.90;;;;;;5129799;27;20002;-66
2021/04/07 05:25:17;;;;;;;;;;;1.90;99.90;;;;;;5097004;28;20008;-66
2021/04/07 05:27:54;;;;;;;;;;;2.10;99.90;;;;;;5098972;27;19926;-66
2021/04/07 05:33:43;;;;;;;;;;;2.00;99.90;;;;;;5114777;28;19915;-66
2021/04/07 05:40:00;;;;;;;;;;;2.00;99.90;;;;;;5123319;27;19918;-66
2021/04/07 05:42:30;;;;;;;;;;;2.10;99.90;;;;;;5121359;27;19919;-66
2021/04/07 05:45:34;;;;;;;;;;;2.10;99.90;;;;;;5128773;27;20285;-67
2021/04/07 05:48:13;;;;;;;;;;;2.10;99.90;;;;;;5091427;27;19919;-67
2021/04/07 05:57:31;;;;;;;;;;;2.00;99.90;;;;;;5119877;27;19914;-65
2021/04/07 05:59:58;;;;;;;;;;;2.20;99.90;;;;;;5125057;27;19968;-65
2021/04/07 06:02:47;;;;;;;;;;;2.30;99.90;;;;;;5094683;28;20375;-65
2021/04/07 06:05:21;;;;;;;;;;;2.40;99.90;;;;;;5094263;28;19920;-65
2021/04/07 06:07:53;;;;;;;;;;;2.40;99.90;;;;;;5128604;27;19942;-65
2021/04/07 06:10:27;;;;;;;;;;;2.50;99.90;;;;;;5116880;28;19920;-64
2021/04/07 06:20:03;;;;;;;;;;;2.70;99.90;;;;;;5131496;27;19929;-64
2021/04/07 06:22:33;;;;;;;;;;;2.70;99.90;;;;;;5132644;27;19951;-63
2021/04/07 06:25:06;;;;;;;;;;;2.80;99.90;;;;;;5103411;28;19920;-64
2021/04/07 06:27:33;;;;;;;;;;;2.90;99.90;;;;;;5130756;28;19962;-63
2021/04/07 06:30:03;;;;;;;;;;;2.90;99.90;;;;;;5115506;28;19924;-63
2021/04/07 06:32:31;;;;;;;;;;;2.90;99.90;;;;;;5097317;27;20415;-63
2021/04/07 06:35:05;;;;;;;;;;;2.90;99.90;;;;;;5119998;28;20290;-63
2021/04/07 06:37:35;;;;;;;;;;;2.80;99.90;;;;;;5115288;27;19923;-66
2021/04/07 06:40:04;;;;;;;;;;;2.90;99.90;;;;;;5121933;27;20390;-64
2021/04/07 06:42:37;;;;;;;;;;;2.80;99.90;;;;;;5134041;27;19923;-64
2021/04/07 06:45:04;;;;;;;;;;;2.80;99.90;;;;;;5128212;27;20014;-65
2021/04/07 06:47:38;;;;;;;;;;;2.80;99.90;;;;;;5136503;27;20293;-64
2021/04/07 06:50:04;;;;;;;;;;;2.90;99.90;;;;;;5129534;27;19972;-64
2021/04/07 07:03:11;;;;;;;;;;;3.10;99.90;;;;;;5101083;27;19915;-65
2021/04/07 07:12:37;;;;;;;;;;;3.30;99.90;;;;;;5117505;28;19961;-65
2021/04/07 07:15:05;;;;;;;;;;;3.30;99.90;;;;;;5120068;27;19959;-65
2021/04/07 07:17:35;;;;;;;;;;;3.40;99.90;;;;;;5136370;27;19919;-66
2021/04/07 07:20:02;;;;;;;;;;;3.40;99.90;;;;;;5119514;27;19982;-65
2021/04/07 07:22:32;;;;;;;;;;;3.40;99.90;;;;;;5117623;28;19947;-63
2021/04/07 07:25:07;;;;;;;;;;;3.40;99.90;;;;;;5132314;27;19942;-63
2021/04/07 07:28:10;;;;;;;;;;;3.50;99.90;;;;;;5137454;27;19927;-64
2021/04/07 07:30:42;;;;;;;;;;;3.60;99.90;;;;;;5113256;27;19992;-64
2021/04/07 07:33:27;;;;;;;;;;;3.80;99.90;;;;;;5119819;27;19927;-65
2021/04/07 07:36:06;;;;;;;;;;;3.90;99.90;;;;;;5127392;27;19919;-64
2021/04/07 07:45:11;;;;;;;;;;;4.10;99.90;;;;;;5134662;27;19926;-64
2021/04/07 07:47:45;;;;;;;;;;;4.20;99.90;;;;;;5126719;27;19926;-63
2021/04/07 07:50:15;;;;;;;;;;;4.30;99.90;;;;;;5136165;27;19923;-64
2021/04/07 07:52:50;;;;;;;;;;;4.40;99.90;;;;;;5098550;28;20444;-62
2021/04/07 07:55:44;;;;;;;;;;;4.40;99.90;;;;;;5100640;27;19927;-63
2021/04/07 07:58:16;;;;;;;;;;;4.50;99.90;;;;;;5134479;27;19923;-63
2021/04/07 08:00:42;;;;;;;;;;;4.50;99.90;;;;;;5121700;27;20438;-63
2021/04/07 08:10:08;;;;;;;;;;;4.60;99.90;;;;;;5132783;27;20032;-64
2021/04/07 08:12:39;;;;;;;;;;;4.80;99.90;;;;;;5118951;27;20279;-63
2021/04/07 08:15:15;;;;;;;;;;;4.80;99.90;;;;;;5116654;27;19927;-64
2021/04/07 08:17:41;;;;;;;;;;;4.90;99.90;;;;;;5116903;28;19972;-62
2021/04/07 08:20:08;;;;;;;;;;;5.00;99.90;;;;;;5134948;27;19920;-63
2021/04/07 08:22:36;;;;;;;;;;;5.00;99.90;;;;;;5104332;27;19920;-63
2021/04/07 08:25:05;;;;;;;;;;;5.10;99.90;;;;;;5137366;27;19958;-62
2021/04/07 08:27:32;;;;;;;;;;;5.20;99.90;;;;;;5128687;27;20275;-64
2021/04/07 08:30:16;;;;;;;;;;;5.30;99.90;;;;;;5107711;27;20021;-64
2021/04/07 08:40:02;;;;;;;;;;;5.40;99.90;;;;;;5133085;27;19988;-62
2021/04/07 08:42:33;;;;;;;;;;;5.50;99.90;;;;;;5122403;27;19919;-62
2021/04/07 08:45:04;;;;;;;;;;;5.70;99.90;;;;;;5121701;27;19919;-62
2021/04/07 08:51:04;;;;;;;;;;;5.80;99.90;;;;;;5052882;28;20356;-62
2021/04/07 08:53:30;;;;;;;;;;;5.70;99.90;;;;;;5052898;28;19943;-63
2021/04/07 09:05:52;;;;;;;;;;;5.50;99.90;;;;;;5052831;28;19931;-62
2021/04/07 09:08:21;;;;;;;;;;;5.50;99.90;;;;;;5097321;28;19973;-63
2021/04/07 09:10:56;;;;;;;;;;;5.60;99.90;;;;;;5121982;27;20426;-63
2021/04/07 09:20:24;;;;;;;;;;;5.60;99.90;;;;;;5115285;28;19919;-62
2021/04/07 09:23:10;;;;;;;;;;;5.60;99.90;;;;;;5117221;27;19947;-62
2021/04/07 09:32:56;;;;;;;;;;;5.70;99.90;;;;;;5116069;27;19920;-62
2021/04/07 09:35:23;;;;;;;;;;;5.70;99.90;;;;;;5130556;27;19920;-62
2021/04/07 09:37:49;;;;;;;;;;;5.90;99.90;;;;;;5113631;27;20441;-62
2021/04/07 09:40:18;;;;;;;;;;;5.90;99.90;;;;;;5135350;27;19925;-61
2021/04/07 09:42:54;;;;;;;;;;;6.00;99.90;;;;;;5118037;27;19926;-61
2021/04/07 09:45:25;;;;;;;;;;;6.00;99.90;;;;;;5133408;27;19975;-62
2021/04/07 09:47:56;;;;;;;;;;;6.10;99.90;;;;;;5133989;27;19923;-62
2021/04/07 09:50:35;;;;;;;;;;;6.10;99.90;;;;;;5120248;27;20367;-62
2021/04/07 10:00:08;;;;;;;;;;;6.40;99.90;;;;;;5130537;27;19956;-63
2021/04/07 10:02:37;;;;;;;;;;;6.40;99.90;;;;;;5126997;27;19926;-63
2021/04/07 10:05:09;;;;;;;;;;;6.40;99.90;;;;;;5134061;27;20015;-64
2021/04/07 10:07:38;;;;;;;;;;;6.50;99.90;;;;;;5126196;27;19919;-64
2021/04/07 10:10:07;;;;;;;;;;;6.50;99.90;;;;;;5116878;27;19919;-65
2021/04/07 10:13:09;;;;;;;;;;;6.60;99.90;;;;;;5110781;27;20000;-65
2021/04/07 10:16:01;;;;;;;;;;;6.60;99.90;;;;;;5097115;28;19920;-65
2021/04/07 10:18:29;;;;;;;;;;;6.60;99.90;;;;;;5106963;27;19919;-64
2021/04/07 10:20:56;;;;;;;;;;;6.60;99.90;;;;;;5106524;27;19920;-65
2021/04/07 10:23:53;;;;;;;;;;;6.60;99.90;;;;;;5128567;27;20260;-64
2021/04/07 10:26:44;;;;;;;;;;;6.60;99.90;;;;;;5117131;27;19919;-64
2021/04/07 10:32:42;;;;;;;;;;;6.70;99.90;;;;;;5116155;28;20267;-65
2021/04/07 10:35:18;;;;;;;;;;;6.70;99.90;;;;;;5127333;28;20001;-64
2021/04/07 10:38:03;;;;;;;;;;;6.70;99.90;;;;;;5116778;28;19920;-64
2021/04/07 10:40:56;;;;;;;;;;;6.50;99.90;;;;;;5120466;28;19916;-63
2021/04/07 10:43:22;;;;;;;;;;;6.10;99.90;;;;;;5105247;28;20384;-63
2021/04/07 10:52:45;;;;;;;;;;;5.60;99.90;;;;;;5111554;28;20370;-63
2021/04/07 10:55:24;;;;;;;;;;;5.60;99.90;;;;;;5127498;28;20369;-63
2021/04/07 10:57:52;;;;;;;;;;;5.60;99.90;;;;;;5133663;28;20289;-65
2021/04/07 11:00:37;;;;;;;;;;;5.60;99.90;;;;;;5134903;28;19919;-64
2021/04/07 11:03:32;;;;;;;;;;;5.70;99.90;;;;;;5127745;28;19919;-64
2021/04/07 11:06:02;;;;;;;;;;;5.70;99.90;;;;;;5099183;28;20283;-63
2021/04/07 11:08:46;;;;;;;;;;;5.80;99.90;;;;;;5126896;28;19963;-62
2021/04/07 11:11:24;;;;;;;;;;;5.90;99.90;;;;;;5110216;28;19934;-64
2021/04/07 11:17:48;;;;;;;;;;;6.20;99.90;;;;;;5116654;28;19915;-64
2021/04/07 11:20:28;;;;;;;;;;;6.30;99.90;;;;;;5124518;27;19919;-71
2021/04/07 11:22:54;;;;;;;;;;;6.30;99.90;;;;;;5117120;27;20017;-64
2021/04/07 11:25:21;;;;;;;;;;;6.20;99.90;;;;;;5126469;27;19928;-64
2021/04/07 11:27:53;;;;;;;;;;;6.00;99.90;;;;;;5118282;27;19951;-63
2021/04/07 11:30:21;;;;;;;;;;;5.70;99.90;;;;;;5133038;27;19952;-63
2021/04/07 11:32:57;;;;;;;;;;;5.50;99.90;;;;;;5119991;27;19923;-63
2021/04/07 11:36:01;;;;;;;;;;;5.40;99.90;;;;;;5123678;27;19919;-64
2021/04/07 11:45:18;;;;;;;;;;;5.70;99.90;;;;;;5125472;27;19918;-64
2021/04/07 11:47:47;;;;;;;;;;;5.90;99.90;;;;;;5129028;27;19954;-64
2021/04/07 11:50:21;;;;;;;;;;;6.00;99.90;;;;;;5138065;27;19920;-65
2021/04/07 11:52:53;;;;;;;;;;;6.10;99.90;;;;;;5137757;27;20390;-65
2021/04/07 11:55:20;;;;;;;;;;;6.20;99.90;;;;;;5127431;27;19923;-65
2021/04/07 11:57:53;;;;;;;;;;;6.30;99.90;;;;;;5133038;27;19923;-65
2021/04/07 12:00:25;;;;;;;;;;;6.30;99.90;;;;;;5122575;27;19926;-64
2021/04/07 12:02:53;;;;;;;;;;;6.40;99.90;;;;;;5133427;27;19923;-64
2021/04/07 12:05:56;;;;;;;;;;;6.50;99.90;;;;;;5118979;27;19919;-64
2021/04/07 12:08:29;;;;;;;;;;;6.60;99.90;;;;;;5127238;27;20294;-64
2021/04/07 12:11:07;;;;;;;;;;;6.80;99.90;;;;;;5134498;27;19920;-65
2021/04/07 12:14:03;;;;;;;;;;;6.80;99.90;;;;;;5123658;27;19926;-64
2021/04/07 12:16:31;;;;;;;;;;;6.80;99.90;;;;;;5102357;27;19920;-66
2021/04/07 12:25:52;;;;;;;;;;;7.00;99.90;;;;;;5130594;27;19923;-65
2021/04/07 12:28:22;;;;;;;;;;;6.90;99.90;;;;;;5113236;27;19919;-64
2021/04/07 12:30:56;;;;;;;;;;;6.80;99.90;;;;;;5123020;27;19923;-65
2021/04/07 12:33:33;;;;;;;;;;;6.80;99.90;;;;;;5131595;27;19922;-65
2021/04/07 12:36:05;;;;;;;;;;;6.80;99.90;;;;;;5133186;27;20016;-66
2021/04/07 12:45:34;;;;;;;;;;;6.60;99.90;;;;;;5120858;27;20378;-65
2021/04/07 12:48:04;;;;;;;;;;;6.30;99.90;;;;;;5106824;28;19959;-65
2021/04/07 12:50:31;;;;;;;;;;;6.10;99.90;;;;;;5115883;28;20384;-65
2021/04/07 12:53:04;;;;;;;;;;;5.90;99.90;;;;;;5095690;28;19919;-64
2021/04/07 12:55:53;;;;;;;;;;;5.80;99.90;;;;;;5111719;27;19988;-66
2021/04/07 12:58:27;;;;;;;;;;;5.80;99.90;;;;;;5082782;27;20298;-64
2021/04/07 13:01:09;;;;;;;;;;;5.80;99.90;;;;;;5136148;27;19920;-65
2021/04/07 13:03:35;;;;;;;;;;;5.90;99.90;;;;;;5130401;27;19948;-65
2021/04/07 13:06:02;;;;;;;;;;;5.90;99.90;;;;;;5121183;27;19923;-66
2021/04/07 13:08:40;;;;;;;;;;;5.90;99.90;;;;;;5081712;28;19920;-66
2021/04/07 13:11:18;;;;;;;;;;;5.80;99.90;;;;;;5101189;27;19920;-66
2021/04/07 13:20:29;;;;;;;;;;;5.70;99.90;;;;;;5117299;27;19914;-66
2021/04/07 13:23:01;;;;;;;;;;;5.70;99.90;;;;;;5121912;27;19972;-65
2021/04/07 13:25:29;;;;;;;;;;;5.60;99.90;;;;;;5135629;27;19919;-65
2021/04/07 13:28:04;;;;;;;;;;;5.60;99.90;;;;;;5134040;27;19947;-66
2021/04/07 13:30:33;;;;;;;;;;;5.60;99.90;;;;;;5121316;27;19919;-64
2021/04/07 13:33:12;;;;;;;;;;;5.70;99.90;;;;;;5130956;27;19920;-66
2021/04/07 13:36:15;;;;;;;;;;;5.80;99.90;;;;;;5133999;27;20347;-66
2021/04/07 13:50:40;;;;;;;;;;;6.40;99.90;;;;;;5094905;28;20005;-65
2021/04/07 13:53:15;;;;;;;;;;;6.30;99.90;;;;;;5096197;28;20018;-65
2021/04/07 13:55:56;;;;;;;;;;;6.40;99.90;;;;;;5119188;27;19923;-64
2021/04/07 13:58:34;;;;;;;;;;;6.40;99.90;;;;;;5111491;27;20423;-65
2021/04/07 14:01:19;;;;;;;;;;;6.40;99.90;;;;;;5111956;27;19927;-64
2021/04/07 14:10:31;;;;;;;;;;;6.10;99.90;;;;;;5119905;27;19960;-65
2021/04/07 14:13:08;;;;;;;;;;;6.10;99.90;;;;;;5127101;27;19919;-66
2021/04/07 14:15:39;;;;;;;;;;;6.10;99.90;;;;;;5115294;28;20012;-63
2021/04/07 14:18:09;;;;;;;;;;;6.10;99.90;;;;;;5116782;27;19919;-63
2021/04/07 14:20:45;;;;;;;;;;;6.10;99.90;;;;;;5114221;28;19927;-65
2021/04/07 14:23:32;;;;;;;;;;;6.10;99.90;;;;;;5097345;28;20010;-65
2021/04/07 14:26:10;;;;;;;;;;;6.20;99.90;;;;;;5127302;27;19920;-63
2021/04/07 14:28:42;;;;;;;;;;;6.20;99.90;;;;;;5093797;28;19935;-64
2021/04/07 14:31:20;;;;;;;;;;;6.30;99.90;;;;;;5098994;28;20342;-65
2021/04/07 14:33:47;;;;;;;;;;;6.40;99.90;;;;;;5095402;28;20033;-66
2021/04/07 14:36:14;;;;;;;;;;;6.50;99.90;;;;;;5087412;28;19958;-63
2021/04/07 14:42:06;;;;;;;;;;;6.60;99.90;;;;;;5105951;28;19962;-63
2021/04/07 14:44:32;;;;;;;;;;;6.40;99.90;;;;;;5098944;28;19927;-62
2021/04/07 14:46:58;;;;;;;;;;;6.50;99.90;;;;;;5112079;28;19920;-63
2021/04/07 14:49:29;;;;;;;;;;;6.20;99.90;;;;;;5110790;28;19920;-63
2021/04/07 14:52:04;;;;;;;;;;;6.10;99.90;;;;;;5094953;28;19920;-63
2021/04/07 14:54:38;;;;;;;;;;;6.00;99.90;;;;;;5101832;28;19920;-62
2021/04/07 14:57:22;;;;;;;;;;;5.90;99.90;;;;;;5109109;28;19920;-64
2021/04/07 15:00:07;;;;;;;;;;;5.80;99.90;;;;;;5115077;28;19919;-65
2021/04/07 15:02:33;;;;;;;;;;;5.80;99.90;;;;;;5112140;28;19920;-63
2021/04/07 15:08:36;;;;;;;;;;;5.60;99.90;;;;;;5114191;28;19918;-65
2021/04/07 15:14:34;;;;;;;;;;;5.60;99.90;;;;;;5117632;28;19915;-65
2021/04/07 15:17:03;;;;;;;;;;;5.60;99.90;;;;;;5117862;27;19920;-63
2021/04/07 15:19:34;;;;;;;;;;;5.50;99.90;;;;;;5117015;28;19978;-65
2021/04/07 15:22:04;;;;;;;;;;;5.50;99.90;;;;;;5114122;28;19923;-64
2021/04/07 15:24:33;;;;;;;;;;;5.30;99.90;;;;;;5102872;28;19924;-65
2021/04/07 15:27:13;;;;;;;;;;;5.10;99.90;;;;;;5114527;28;19963;-66
2021/04/07 15:30:08;;;;;;;;;;;5.10;99.90;;;;;;5090130;28;19920;-64
2021/04/07 15:32:35;;;;;;;;;;;5.00;99.90;;;;;;5093488;28;19959;-65
2021/04/07 15:35:06;;;;;;;;;;;5.10;99.90;;;;;;5080767;28;19924;-65
2021/04/07 15:37:38;;;;;;;;;;;5.20;99.90;;;;;;5064741;28;19996;-64
2021/04/07 15:40:10;;;;;;;;;;;5.30;99.90;;;;;;5090733;28;19970;-64
2021/04/07 15:49:33;;;;;;;;;;;5.50;99.90;;;;;;5081863;28;19915;-64
2021/04/07 15:55:25;;;;;;;;;;;5.70;99.90;;;;;;5066052;28;19935;-65
2021/04/07 16:04:37;;;;;;;;;;;5.80;99.90;;;;;;5056219;28;19928;-62
2021/04/07 16:07:04;;;;;;;;;;;5.80;99.90;;;;;;5056511;28;19920;-63
2021/04/07 16:09:40;;;;;;;;;;;5.80;99.90;;;;;;5076639;28;19934;-64
2021/04/07 16:12:10;;;;;;;;;;;5.80;99.90;;;;;;5089253;28;19927;-65
2021/04/07 16:14:37;;;;;;;;;;;5.80;99.90;;;;;;5081976;28;19927;-64
2021/04/07 16:17:29;;;;;;;;;;;5.80;99.90;;;;;;5075519;28;19920;-63
2021/04/07 16:20:05;;;;;;;;;;;5.70;99.90;;;;;;5093225;28;19920;-63
2021/04/07 16:22:31;;;;;;;;;;;5.70;99.90;;;;;;5095503;28;19923;-63
2021/04/07 16:25:03;;;;;;;;;;;5.70;99.90;;;;;;5094486;28;19920;-64
2021/04/07 16:27:31;;;;;;;;;;;5.70;99.90;;;;;;5082518;28;20015;-63
2021/04/07 16:30:05;;;;;;;;;;;5.60;99.90;;;;;;5118114;27;20366;-66
2021/04/07 16:33:01;;;;;;;;;;;5.70;99.90;;;;;;5119865;27;19930;-66
2021/04/07 16:35:41;;;;;;;;;;;5.60;99.90;;;;;;5116159;28;19919;-66
2021/04/07 16:38:10;;;;;;;;;;;5.40;99.90;;;;;;5106157;27;20423;-65
2021/04/07 16:47:32;;;;;;;;;;;4.70;99.90;;;;;;5136436;27;20408;-68
2021/04/07 16:50:07;;;;;;;;;;;4.60;99.90;;;;;;5128958;27;19915;-67
2021/04/07 16:52:39;;;;;;;;;;;4.50;99.90;;;;;;5136472;27;20006;-66
2021/04/07 16:55:08;;;;;;;;;;;4.40;99.90;;;;;;5129339;27;20404;-67
2021/04/07 16:57:41;;;;;;;;;;;4.40;99.90;;;;;;5093267;28;19924;-66
2021/04/07 17:00:39;;;;;;;;;;;4.40;99.90;;;;;;5095488;28;19955;-69
2021/04/07 17:10:07;;;;;;;;;;;4.40;99.90;;;;;;5116176;27;19932;-72
2021/04/07 17:12:45;;;;;;;;;;;4.40;99.90;;;;;;5093160;28;19920;-70
2021/04/07 17:15:14;;;;;;;;;;;4.30;99.90;;;;;;5078102;28;19973;-69
2021/04/07 17:17:58;;;;;;;;;;;4.40;99.90;;;;;;5114873;28;19927;-72
2021/04/07 17:20:41;;;;;;;;;;;4.40;99.90;;;;;;5122297;27;19925;-70
2021/04/07 17:23:29;;;;;;;;;;;4.40;99.90;;;;;;5116284;27;19951;-70
2021/04/07 17:32:55;;;;;;;;;;;4.40;99.90;;;;;;5129376;27;20290;-66
2021/04/07 17:45:16;;;;;;;;;;;4.40;99.90;;;;;;5122456;27;19920;-71
2021/04/07 17:48:30;;;;;;;;;;;4.30;99.90;;;;;;5111917;28;19923;-72
2021/04/07 17:54:32;;;;;;;;;;;4.00;99.90;;;;;;5134908;27;19917;-71
2021/04/07 17:57:13;;;;;;;;;;;3.90;99.90;;;;;;5110606;28;19920;-66
2021/04/07 18:03:05;;;;;;;;;;;3.70;99.90;;;;;;5100781;27;19919;-69
2021/04/07 18:05:36;;;;;;;;;;;3.90;99.90;;;;;;5120825;27;19919;-70
2021/04/07 18:08:04;;;;;;;;;;;3.80;99.90;;;;;;5121083;27;19920;-69
2021/04/07 18:10:36;;;;;;;;;;;3.80;99.90;;;;;;5135261;27;20006;-69
2021/04/07 18:13:07;;;;;;;;;;;3.80;99.90;;;;;;5134929;27;20021;-70
2021/04/07 18:16:00;;;;;;;;;;;3.80;99.90;;;;;;5117484;27;19920;-69
2021/04/07 18:18:33;;;;;;;;;;;3.70;99.90;;;;;;5104482;28;20314;-69
2021/04/07 18:24:29;;;;;;;;;;;3.70;99.90;;;;;;5123745;27;19923;-69
2021/04/07 18:30:23;;;;;;;;;;;3.60;99.90;;;;;;5121581;27;20004;-68
2021/04/07 18:32:50;;;;;;;;;;;3.60;99.90;;;;;;5113127;27;20282;-68
2021/04/07 18:35:27;;;;;;;;;;;3.60;99.90;;;;;;5104083;28;20365;-68
2021/04/07 18:38:05;;;;;;;;;;;3.60;99.90;;;;;;5134792;28;20339;-70
2021/04/07 18:50:20;;;;;;;;;;;3.50;99.90;;;;;;5120788;28;19929;-70
2021/04/07 18:52:55;;;;;;;;;;;3.50;99.90;;;;;;5114049;28;20315;-71
2021/04/07 18:55:24;;;;;;;;;;;3.50;99.90;;;;;;5128966;28;19920;-68
2021/04/07 18:57:54;;;;;;;;;;;3.50;99.90;;;;;;5134997;28;20387;-69
2021/04/07 19:00:24;;;;;;;;;;;3.50;99.90;;;;;;5123558;28;19922;-68
2021/04/07 19:02:54;;;;;;;;;;;3.50;99.90;;;;;;5133294;28;19969;-69
2021/04/07 19:05:22;;;;;;;;;;;3.40;99.90;;;;;;5129439;28;20022;-69
2021/04/07 19:07:55;;;;;;;;;;;3.40;99.90;;;;;;5095750;28;20010;-69
2021/04/07 19:10:21;;;;;;;;;;;3.40;99.90;;;;;;5096512;28;19924;-68
2021/04/07 19:12:57;;;;;;;;;;;3.40;99.90;;;;;;5132550;28;20013;-70
2021/04/07 19:15:57;;;;;;;;;;;3.30;99.90;;;;;;5120735;28;19926;-69
2021/04/07 19:18:31;;;;;;;;;;;3.30;99.90;;;;;;5130523;28;19920;-69
2021/04/07 19:27:57;;;;;;;;;;;3.30;99.90;;;;;;5131082;28;19915;-70
2021/04/07 19:30:26;;;;;;;;;;;3.30;99.90;;;;;;5121608;27;20247;-69
2021/04/07 19:33:07;;;;;;;;;;;3.30;99.90;;;;;;5132575;28;20294;-69
2021/04/07 19:35:47;;;;;;;;;;;3.30;99.90;;;;;;5127641;28;19968;-67
2021/04/07 19:48:27;;;;;;;;;;;3.40;99.90;;;;;;5116670;27;19923;-67
2021/04/07 19:51:00;;;;;;;;;;;3.40;99.90;;;;;;5118732;27;19965;-66
2021/04/07 19:53:29;;;;;;;;;;;3.40;99.90;;;;;;5117583;27;19920;-67
2021/04/07 19:56:02;;;;;;;;;;;3.50;99.90;;;;;;5134580;27;19930;-65
2021/04/07 19:58:39;;;;;;;;;;;3.50;99.90;;;;;;5137827;27;19923;-66
2021/04/07 20:01:07;;;;;;;;;;;3.50;99.90;;;;;;5120573;27;20035;-68
2021/04/07 20:03:45;;;;;;;;;;;3.50;99.90;;;;;;5124898;27;19919;-67
2021/04/07 20:13:31;;;;;;;;;;;3.50;99.90;;;;;;5133325;27;20003;-68
2021/04/07 20:16:04;;;;;;;;;;;3.50;99.90;;;;;;5109715;27;20026;-69
2021/04/07 20:18:30;;;;;;;;;;;3.50;99.90;;;;;;5116627;28;19920;-67
2021/04/07 20:20:56;;;;;;;;;;;3.50;99.90;;;;;;5135378;27;19934;-66
2021/04/07 20:23:23;;;;;;;;;;;3.50;99.90;;;;;;5137247;27;20397;-65
2021/04/07 20:25:52;;;;;;;;;;;3.50;99.90;;;;;;5126208;27;20367;-68
2021/04/07 20:28:32;;;;;;;;;;;3.50;99.90;;;;;;5116499;28;19920;-68
2021/04/07 20:31:04;;;;;;;;;;;3.40;99.90;;;;;;5109283;27;19920;-67
2021/04/07 20:33:33;;;;;;;;;;;3.30;99.90;;;;;;5097187;28;19916;-67
2021/04/07 20:36:10;;;;;;;;;;;3.30;99.90;;;;;;5096042;28;19920;-67
2021/04/07 20:48:35;;;;;;;;;;;3.20;99.90;;;;;;5129125;27;20346;-68
2021/04/07 20:51:07;;;;;;;;;;;3.10;99.90;;;;;;5119709;27;19957;-68
2021/04/07 20:56:56;;;;;;;;;;;3.00;99.90;;;;;;5095439;28;19968;-67
2021/04/07 21:06:24;;;;;;;;;;;2.80;99.90;;;;;;5116649;27;19968;-66
2021/04/07 21:16:07;;;;;;;;;;;2.70;99.90;;;;;;5119995;27;20385;-68
2021/04/07 21:18:33;;;;;;;;;;;2.70;99.90;;;;;;5128337;27;19920;-68
2021/04/07 21:21:09;;;;;;;;;;;2.70;99.90;;;;;;5117761;27;19963;-68
2021/04/07 21:24:07;;;;;;;;;;;2.70;99.90;;;;;;5120739;27;19920;-68
2021/04/07 21:26:44;;;;;;;;;;;2.70;99.90;;;;;;5115712;28;19919;-68
2021/04/07 21:29:11;;;;;;;;;;;2.70;99.90;;;;;;5101487;27;21194;-69
2021/04/07 21:31:43;;;;;;;;;;;2.70;99.90;;;;;;5088565;28;19920;-68
2021/04/07 21:34:11;;;;;;;;;;;2.70;99.90;;;;;;5083485;28;19915;-66
2021/04/07 21:43:36;;;;;;;;;;;2.70;99.90;;;;;;5094309;28;20287;-67